createdAt,value
2022-08-21T00:03:10.989Z,4.63
2022-08-21T00:08:13.826Z,4.35
2022-08-21T00:13:18.730Z,4.70
2022-08-21T00:18:22.149Z,4.57
2022-08-21T00:23:25.050Z,4.30
2022-08-21T00:28:27.558Z,4.50
2022-08-21T00:33:48.543Z,4.50
2022-08-21T00:38:51.070Z,4.72
2022-08-21T00:43:54.192Z,5.13
2022-08-21T00:48:59.043Z,4.50
2022-08-21T00:54:02.800Z,4.35
2022-08-21T00:59:06.683Z,4.73
2022-08-21T01:04:09.363Z,4.35
2022-08-21T01:09:12.884Z,4.47
2022-08-21T01:14:16.052Z,4.63
2022-08-21T01:19:20.039Z,4.30
2022-08-21T01:24:22.752Z,4.70
2022-08-21T01:29:31.855Z,4.57
2022-08-21T01:34:35.910Z,4.68
2022-08-21T01:39:39.016Z,4.75
2022-08-21T01:44:42.463Z,4.85
2022-08-21T01:49:45.915Z,5.15
2022-08-21T01:54:55.089Z,4.60
2022-08-21T01:59:58.290Z,4.72
2022-08-21T02:05:01.045Z,4.68
2022-08-21T02:10:07.263Z,4.88
2022-08-21T02:15:10.853Z,5.25
2022-08-21T02:20:38.028Z,4.20
2022-08-21T02:25:41.902Z,4.82
2022-08-21T02:30:47.287Z,4.78
2022-08-21T02:35:51.439Z,5.60
2022-08-21T02:40:54.963Z,4.93
2022-08-21T02:45:58.575Z,4.78
2022-08-21T02:51:04.504Z,4.78
2022-08-21T02:56:10.843Z,4.88
2022-08-21T03:01:13.991Z,4.97
2022-08-21T03:06:17.895Z,5.22
2022-08-21T03:11:39.446Z,5.10
2022-08-21T03:16:43.661Z,4.70
2022-08-21T03:21:48.236Z,5.63
2022-08-21T03:26:53.132Z,5.13
2022-08-21T03:31:55.777Z,5.18
2022-08-21T03:36:58.325Z,4.97
2022-08-21T03:42:00.993Z,5.40
2022-08-21T03:47:03.957Z,5.95
2022-08-21T03:52:06.522Z,5.60
2022-08-21T03:57:10.326Z,5.15
2022-08-21T04:02:15.287Z,4.90
2022-08-21T04:07:18.702Z,5.22
2022-08-21T04:12:21.880Z,4.82
2022-08-21T04:17:24.519Z,4.97
2022-08-21T04:22:27.834Z,5.50
2022-08-21T04:27:30.438Z,5.50
2022-08-21T04:32:33.042Z,5.55
2022-08-21T04:37:35.909Z,4.82
2022-08-21T04:42:50.713Z,5.28
2022-08-21T04:47:56.387Z,6.13
2022-08-21T04:52:59.882Z,5.50
2022-08-21T04:58:02.959Z,5.05
2022-08-21T05:03:06.637Z,6.30
2022-08-21T05:08:13.039Z,5.82
2022-08-21T05:13:16.294Z,6.22
2022-08-21T05:23:22.832Z,6.10
2022-08-21T05:28:26.865Z,7.38
2022-08-21T05:33:29.472Z,6.90
2022-08-21T05:38:32.265Z,7.57
2022-08-21T05:43:37.194Z,7.30
2022-08-21T05:48:40.210Z,7.03
2022-08-21T05:53:43.888Z,7.50
2022-08-21T05:58:46.641Z,7.07
2022-08-21T06:03:49.164Z,7.72
2022-08-21T06:09:10.402Z,8.32
2022-08-21T06:14:17.509Z,7.47
2022-08-21T06:19:20.110Z,8.30
2022-08-21T06:24:41.127Z,8.90
2022-08-21T06:29:44.361Z,10.68
2022-08-21T06:34:47.390Z,14.00
2022-08-21T06:39:50.131Z,12.75
2022-08-21T06:44:52.775Z,12.65
2022-08-21T06:49:55.407Z,11.30
2022-08-21T06:54:58.519Z,11.00
2022-08-21T07:00:01.250Z,11.95
2022-08-21T07:05:17.999Z,9.02
2022-08-21T07:10:22.243Z,10.57
2022-08-21T07:15:25.366Z,10.38
2022-08-21T07:20:30.282Z,12.27
2022-08-21T07:25:32.979Z,10.65
2022-08-21T07:30:35.557Z,9.80
2022-08-21T07:35:38.073Z,10.25
2022-08-21T07:40:40.703Z,10.10
2022-08-21T07:45:43.547Z,9.65
2022-08-21T07:50:46.555Z,8.77
2022-08-21T07:55:49.172Z,8.57
2022-08-21T08:00:51.926Z,9.40
2022-08-21T08:05:54.639Z,9.88
2022-08-21T08:10:58.269Z,8.30
2022-08-21T08:16:01.045Z,8.32
2022-08-21T08:21:04.911Z,9.52
2022-08-21T08:26:07.753Z,7.20
2022-08-21T08:31:10.416Z,7.93
2022-08-21T08:36:20.510Z,7.70
2022-08-21T08:41:30.751Z,6.68
2022-08-21T08:46:40.580Z,7.38
2022-08-21T08:52:02.074Z,7.47
2022-08-21T08:57:10.688Z,7.35
2022-08-21T09:02:15.267Z,5.43
2022-08-21T09:07:32.788Z,4.90
2022-08-21T09:12:40.670Z,5.13
2022-08-21T09:18:00.915Z,5.03
2022-08-21T09:23:42.551Z,3.75
2022-08-21T09:28:46.134Z,4.55
2022-08-21T09:38:55.058Z,4.27
2022-08-21T09:43:58.820Z,4.18
2022-08-21T09:49:04.500Z,4.55
2022-08-21T09:54:09.490Z,4.20
2022-08-21T09:59:20.002Z,3.93
2022-08-21T10:04:33.110Z,3.10
2022-08-21T10:14:52.834Z,3.70
2022-08-21T10:20:01.475Z,3.42
2022-08-21T10:25:20.886Z,3.85
2022-08-21T10:30:58.518Z,3.85
2022-08-21T10:36:10.765Z,3.83
2022-08-21T10:41:13.490Z,3.57
2022-08-21T10:46:39.317Z,4.28
2022-08-21T10:51:51.035Z,3.60
2022-08-21T10:57:01.893Z,3.97
2022-08-21T11:02:14.314Z,3.60
2022-08-21T11:07:34.355Z,3.58
2022-08-21T11:13:02.951Z,3.00
2022-08-21T11:18:26.556Z,3.17
2022-08-21T11:23:42.574Z,4.15
2022-08-21T11:28:47.999Z,3.80
2022-08-21T11:34:41.336Z,3.35
2022-08-21T11:39:44.073Z,3.67
2022-08-21T11:50:34.292Z,2.95
2022-08-21T11:55:48.276Z,3.20
2022-08-21T12:00:55.397Z,3.30
2022-08-21T12:06:10.071Z,3.70
2022-08-21T12:11:18.733Z,3.40
2022-08-21T12:16:41.648Z,2.95
2022-08-21T12:22:02.535Z,2.92
2022-08-21T12:27:29.548Z,3.17
2022-08-21T12:32:45.894Z,3.50
2022-08-21T12:38:19.679Z,3.42
2022-08-21T12:49:01.715Z,3.47
2022-08-21T12:54:32.882Z,3.40
2022-08-21T12:59:40.458Z,3.00
2022-08-21T13:04:44.355Z,3.40
2022-08-21T13:10:09.013Z,4.20
2022-08-21T13:15:13.876Z,3.50
2022-08-21T13:20:24.552Z,3.80
2022-08-21T13:25:30.946Z,3.45
2022-08-21T13:30:33.571Z,4.38
2022-08-21T13:35:48.251Z,3.42
2022-08-21T13:40:53.958Z,3.92
2022-08-21T13:45:57.514Z,3.92
2022-08-21T13:51:01.833Z,3.40
2022-08-21T13:56:05.857Z,3.55
2022-08-21T14:01:30.413Z,3.97
2022-08-21T14:06:40.237Z,3.17
2022-08-21T14:11:45.480Z,3.25
2022-08-21T14:16:56.406Z,3.40
2022-08-21T14:21:58.928Z,3.50
2022-08-21T14:27:05.758Z,3.28
2022-08-21T14:32:25.046Z,4.05
2022-08-21T14:37:29.405Z,3.22
2022-08-21T14:42:32.374Z,3.30
2022-08-21T14:47:35.445Z,3.30
2022-08-21T14:52:38.510Z,3.50
2022-08-21T14:57:44.484Z,3.70
2022-08-21T15:02:47.414Z,3.72
2022-08-21T15:07:51.803Z,3.15
2022-08-21T15:12:54.484Z,3.28
2022-08-21T15:17:57.245Z,3.45
2022-08-21T15:22:59.888Z,3.20
2022-08-21T15:28:03.679Z,3.67
2022-08-21T15:33:06.940Z,3.30
2022-08-21T15:38:11.165Z,3.45
2022-08-21T15:43:29.865Z,3.50
2022-08-21T15:48:33.917Z,3.00
2022-08-21T15:53:39.566Z,3.33
2022-08-21T15:58:42.719Z,3.28
2022-08-21T16:04:06.672Z,3.55
2022-08-21T16:09:09.882Z,3.15
2022-08-21T16:14:14.659Z,3.35
2022-08-21T16:19:18.428Z,3.22
2022-08-21T16:24:21.019Z,3.25
2022-08-21T16:29:25.818Z,3.70
2022-08-21T16:34:29.762Z,3.20
2022-08-21T16:39:32.755Z,3.58
2022-08-21T16:44:35.527Z,3.30
2022-08-21T16:49:39.963Z,3.08
2022-08-21T16:54:43.464Z,3.50
2022-08-21T17:04:50.319Z,3.00
2022-08-21T17:09:52.992Z,3.55
2022-08-21T17:14:57.218Z,3.47
2022-08-21T17:20:00.407Z,3.33
2022-08-21T17:25:03.099Z,3.50
2022-08-21T17:30:07.488Z,3.83
2022-08-21T17:35:12.644Z,3.03
2022-08-21T17:40:17.340Z,3.60
2022-08-21T17:45:20.510Z,4.00
2022-08-21T17:50:23.250Z,3.63
2022-08-21T17:55:28.378Z,3.00
2022-08-21T18:00:32.193Z,3.08
2022-08-21T18:05:35.707Z,3.35
2022-08-21T18:10:43.578Z,3.42
2022-08-21T18:15:49.130Z,3.45
2022-08-21T18:20:53.193Z,2.70
2022-08-21T18:25:57.346Z,3.17
2022-08-21T18:30:59.977Z,3.10
2022-08-21T18:36:04.660Z,3.30
2022-08-21T18:41:10.598Z,2.90
2022-08-21T18:46:13.483Z,3.40
2022-08-21T18:51:16.475Z,3.22
2022-08-21T18:56:19.692Z,4.10
2022-08-21T19:01:22.372Z,3.30
2022-08-21T19:06:27.017Z,3.42
2022-08-21T19:11:29.793Z,3.50
2022-08-21T19:16:33.023Z,3.15
2022-08-21T19:21:36.980Z,3.00
2022-08-21T19:31:43.871Z,3.03
2022-08-21T19:36:46.847Z,3.50
2022-08-21T19:41:55.234Z,3.20
2022-08-21T19:46:58.493Z,3.60
2022-08-21T19:52:02.239Z,3.15
2022-08-21T19:57:16.707Z,3.78
2022-08-21T20:02:20.905Z,3.92
2022-08-21T20:07:27.326Z,3.85
2022-08-21T20:12:30.003Z,3.30
2022-08-21T20:17:33.013Z,3.50
2022-08-21T20:22:35.763Z,3.35
2022-08-21T20:27:40.667Z,3.45
2022-08-21T20:32:43.589Z,3.45
2022-08-21T20:38:05.702Z,3.55
2022-08-21T20:43:12.662Z,3.53
2022-08-21T20:48:28.613Z,3.80
2022-08-21T20:53:44.033Z,3.53
2022-08-21T20:59:00.768Z,3.38
2022-08-21T21:04:10.006Z,3.78
2022-08-21T21:09:32.290Z,3.60
2022-08-21T21:14:42.411Z,3.83
2022-08-21T21:19:55.744Z,3.78
2022-08-21T21:25:26.318Z,3.70
2022-08-21T21:30:46.494Z,4.15
2022-08-21T21:35:53.975Z,3.70
2022-08-21T21:41:20.594Z,3.53
2022-08-21T21:46:48.696Z,4.05
2022-08-21T21:52:19.306Z,4.00
2022-08-21T21:57:45.109Z,4.03
2022-08-21T22:03:26.122Z,3.90
2022-08-21T22:08:51.007Z,3.90
2022-08-21T22:14:03.196Z,3.70
2022-08-21T22:19:31.290Z,4.20
2022-08-21T22:24:40.436Z,3.85
2022-08-21T22:29:43.904Z,3.80
2022-08-21T22:35:09.518Z,4.67
2022-08-21T22:40:15.823Z,3.97
2022-08-21T22:45:21.170Z,4.22
2022-08-21T22:50:24.746Z,3.83
2022-08-21T22:55:56.196Z,4.10
2022-08-21T23:01:21.098Z,4.53
2022-08-21T23:06:28.147Z,4.20
2022-08-21T23:11:42.739Z,4.72
2022-08-21T23:17:19.290Z,4.13
2022-08-21T23:22:51.526Z,4.28
2022-08-21T23:28:05.731Z,4.10
2022-08-21T23:33:21.981Z,4.00
2022-08-21T23:38:44.498Z,4.50
2022-08-21T23:43:56.290Z,3.85
2022-08-21T23:49:30.420Z,3.78
2022-08-21T23:55:17.352Z,3.85
